Historyczne dane pomiarowe

Dodano dane terminowe – wersja testowa.

Dane z okresu 1951-2019

Wersja bazy: 1.34 [2019-03-16, lista zmian], aktualizacja planowana na 2019-04-15

Dane meteo z obszaru Polski uzyskane na podstawie danych udostępnionych przez Instytut Meteorologii i Gospodarki Wodnej – Państwowy Instytut Badawczy.

 

Wybierz Datę:    

       

TemperaturaWilgotnośćWiatrCiśnienieOpadyŚniegCzas trwania zjawisk
 Stacja t tx tn tng RH VA  wxwx mslp ppp RRR   cm mm wxwxwxwxwxwxwx
1987-08-14 10.1 18.0 1.5 1.2 84.0- 5.3 0.0---- 1.8------------
1987-08-13 10.3 16.1 3.5 1.6 79.8- 5.3 0.7---- 0.0------------
1987-08-12 9.8 16.0 4.6 2.8 82.0- 8.0 0.7---- 0.0------------
1987-08-11 12.4 16.0 9.1 7.8 79.8- 7.7 1.3---- 0.0------------
1987-08-10 13.9 17.0 11.6 11.1 77.5- 7.7 1.7---- 6.5------------
1987-08-09 13.1 22.3 6.0 4.0 73.8- 8.0 1.3---- 0.0------------
1987-08-08 11.6 18.0 7.6 5.8 77.3- 4.0 1.7---- 0.0------------
1987-08-07 8.9 12.5 3.0 0.5 85.8- 5.7 1.0---- 0.0------------
1987-08-06 8.8 13.9 7.3 7.6 88.5- 7.3 1.3---- 0.0------------
1987-08-05 9.5 13.5 7.0 6.2 88.3- 7.7 1.0---- 9.4------------
1987-08-04 14.3 17.0 9.6 8.9 83.0- 8.0 1.0---- 2.7------------
1987-08-03 13.6 19.2 10.6 11.0 80.8- 7.3 1.3---- 0.0------------
1987-08-02 13.5 17.2 10.6 10.6 76.5- 6.3 1.3---- 6.5------------
1987-08-01 13.3 20.2 5.5 4.0 81.8- 4.0 1.3---- 1.2------------
1987-07-31 14.9 23.5 11.3 10.2 83.5- 6.0 1.0---- 3.7------------
1987-07-30 15.8 22.6 9.6 8.2 76.5- 4.0 1.3---- 0.0------------
1987-07-29 12.1 19.5 7.4 6.1 78.8- 7.0 1.0---- 0.0------------
1987-07-28 11.6 13.8 10.0 9.5 85.0- 7.7 2.3---- 2.8------------
1987-07-27 10.4 16.0 7.0 6.0 76.8- 6.7 1.0---- 0.7------------
1987-07-26 12.8 19.5 9.0 10.6 94.0- 8.0 1.0---- 14.5------------
1987-07-25 17.5 22.9 12.2 10.8 77.0- 8.0 1.0---- 0.0------------
1987-07-24 18.6 27.0 14.6 12.6 84.8- 2.7 1.0---- 31.3------------
1987-07-23 18.1 27.6 10.5 8.4 81.5- 0.3 1.0---- 1.2------------
1987-07-22 17.8 23.0 12.6 10.5 81.3- 4.7 1.0---- 0.0------------
1987-07-21 18.3 26.3 11.6 10.1 84.8- 4.7 1.3---- 0.0------------
1987-07-20 20.5 24.6 15.2 15.0 81.0- 0.0 1.0---- 0.0------------
1987-07-19 21.9 28.5 14.6 11.6 78.3- 2.0 1.3---- 0.0------------
1987-07-18 22.3 29.0 14.0 11.6 74.5- 3.7 1.0---- 0.0------------
1987-07-17 20.1 28.6 13.4 11.5 69.8- 5.0 1.0---- 0.0------------
1987-07-16 16.7 26.5 10.4 8.5 87.0- 5.3 1.0---- 0.1------------
1987-07-15 14.5 24.0 6.0 4.1 77.3- 0.0 0.7---- 0.0------------
1987-07-14 15.5 20.5 11.0 9.3 71.3- 5.0 1.0---- 0.0------------
1987-07-13 17.3 22.8 13.9 14.0 80.5- 7.0 1.3---- 0.0------------
1987-07-12 19.0 26.5 11.1 9.0 66.8- 3.7 3.3---- 4.4------------
1987-07-11 15.7 23.0 5.6 4.4 72.3- 0.7 2.0---- 0.0------------
1987-07-10 12.3 17.2 7.4 6.7 81.5- 3.0 1.0---- 0.0------------
1987-07-09 15.3 20.6 9.0 10.8 87.8- 7.3 1.0---- 12.8------------
1987-07-08 18.1 27.2 8.9 7.2 66.0- 0.0 1.0---- 0.0------------
1987-07-07 16.0 26.0 4.9 2.4 65.5- 0.0 1.0---- 0.0------------
1987-07-06 14.4 20.8 5.9 3.4 73.0- 0.0 1.0---- 0.0------------
1987-07-05 12.7 18.0 10.4 8.9 90.3- 8.0 0.7---- 0.4------------
1987-07-04 17.0 21.4 11.6 10.0 80.3- 7.3 2.0---- 0.0------------
1987-07-03 16.6 20.5 14.1 14.0 84.3- 8.0 1.0---- 0.0------------
1987-07-02 18.1 26.2 15.2 13.2 91.3- 7.7 1.0---- 0.5------------
1987-07-01 23.8 30.0 15.0 13.1 70.3- 2.3 1.0---- 0.0------------
1987-06-30 21.0 29.6 12.3 12.0 76.0- 2.3 1.0---- 0.0------------
1987-06-29 19.5 24.8 13.4 12.0 80.3- 3.7 0.7---- 0.0------------
1987-06-28 18.2 24.0 14.0 12.6 76.8- 5.0 1.0---- 1.3------------
1987-06-27 16.5 21.2 12.2 10.0 88.8- 8.0 1.7---- 0.5------------
1987-06-26 13.7 22.1 4.5 2.5 70.5- 4.7 1.0---- 1.5------------
1987-06-25 12.4 16.1 11.0 10.8 87.0- 7.3 1.0---- 0.0------------
1987-06-24 13.7 19.0 9.0 6.7 76.0- 6.3 0.7---- 9.2------------
1987-06-23 13.8 18.0 11.6 10.0 86.8- 7.7 1.0---- 0.0------------
1987-06-22 13.1 18.3 10.4 9.0 90.8- 7.3 1.3---- 19.7------------
1987-06-21 13.8 21.0 6.1 6.0 79.3- 4.0 1.7---- 1.1------------
1987-06-20 13.1 20.7 3.8 4.0 76.8- 6.0 1.3---- 0.0------------
1987-06-19 11.0 17.1 5.6 4.4 73.3- 2.0 1.7---- 0.0------------
1987-06-18 7.9 15.4 3.6 1.0 82.5- 5.3 1.0---- 0.1------------
1987-06-17 7.7 10.3 5.8 3.9 94.5- 7.7 1.3---- 2.0------------
1987-06-16 13.3 24.6 9.4 9.9 81.0- 5.7 1.0---- 0.0------------
514.0 ms

 

Źródłem pochodzenia danych jest Instytut Meteorologii i Gospodarki Wodnej – Państwowy Instytut Badawczy. Dane Instytutu Meteorologii i Gospodarki Wodnej – Państwowego Instytutu Badawczego zostały przetworzone.

Dane źródłowe można odnaleźć na stronie https://dane.imgw.pl